Time;durP1;ratioP1;P1;durP2;ratioP2;P2;SDS_P1;SDS_P2;PMS_P1;PMS_P2;Temp;Humidity;BMP_temperature;BMP_pressure;BME280_temperature;BME280_humidity;BME280_pressure;Samples;Min_cycle;Max_cycle;Signal;HPM_P1;HPM_P2
2022/09/23 00:02:00;;;;;;;4.43;3.97;;;;;;;;;;4972402;28;20077;-70
2022/09/23 00:04:28;;;;;;;4.28;3.97;;;;;;;;;;4974007;28;20054;-69
2022/09/23 00:06:54;;;;;;;4.68;4.38;;;;;;;;;;4974423;28;20054;-70
2022/09/23 00:09:20;;;;;;;4.60;4.20;;;;;;;;;;4975533;28;20055;-70
2022/09/23 00:11:47;;;;;;;4.07;3.67;;;;;;;;;;4975556;28;20050;-70
2022/09/23 00:14:13;;;;;;;3.17;2.97;;;;;;;;;;4975826;28;20392;-70
2022/09/23 00:16:40;;;;;;;3.25;3.05;;;;;;;;;;4975696;28;20055;-70
2022/09/23 00:19:06;;;;;;;2.60;2.50;;;;;;;;;;4975777;28;20504;-70
2022/09/23 00:21:33;;;;;;;3.42;3.22;;;;;;;;;;4975624;28;20049;-70
2022/09/23 00:23:59;;;;;;;3.85;3.55;;;;;;;;;;4975442;28;20055;-70
2022/09/23 00:26:26;;;;;;;4.17;3.87;;;;;;;;;;4975317;28;20447;-71
2022/09/23 00:28:53;;;;;;;4.40;4.10;;;;;;;;;;4975589;28;20065;-70
2022/09/23 00:31:21;;;;;;;5.40;4.93;;;;;;;;;;4975237;28;20043;-69
2022/09/23 00:33:51;;;;;;;5.00;4.63;;;;;;;;;;4975495;28;20047;-68
2022/09/23 00:36:18;;;;;;;5.45;5.05;;;;;;;;;;4975185;28;20043;-69
2022/09/23 00:38:45;;;;;;;6.13;5.63;;;;;;;;;;4975071;28;20423;-69
2022/09/23 00:41:14;;;;;;;7.13;6.43;;;;;;;;;;4975151;28;20422;-68
2022/09/23 00:43:52;;;;;;;7.85;7.15;;;;;;;;;;4975258;28;20105;-68
2022/09/23 00:46:18;;;;;;;;;;;;;;;;;;4975718;28;20410;-68
2022/09/23 00:48:47;;;;;;;8.80;8.00;;;;;;;;;;4975000;28;19925;-68
2022/09/23 00:51:16;;;;;;;8.30;7.70;;;;;;;;;;4974739;28;20050;-68
2022/09/23 00:53:44;;;;;;;8.77;8.05;;;;;;;;;;4974846;28;20499;-68
2022/09/23 00:56:12;;;;;;;8.60;7.80;;;;;;;;;;4975079;28;20051;-68
2022/09/23 00:58:38;;;;;;;;;;;;;;;;;;4975464;28;20406;-68
2022/09/23 01:01:05;;;;;;;9.23;8.43;;;;;;;;;;4974661;28;19936;-68
2022/09/23 01:03:31;;;;;;;9.55;8.65;;;;;;;;;;4974718;28;20051;-69
2022/09/23 01:05:58;;;;;;;9.32;8.45;;;;;;;;;;4974637;28;20051;-68
2022/09/23 01:08:25;;;;;;;8.93;8.13;;;;;;;;;;4974526;28;20073;-68
2022/09/23 01:11:05;;;;;;;8.77;8.05;;;;;;;;;;4974641;28;20051;-68
2022/09/23 01:13:54;;;;;;;8.40;7.60;;;;;;;;;;4974599;28;20058;-68
2022/09/23 01:16:27;;;;;;;8.90;8.10;;;;;;;;;;4973523;28;20061;-68
2022/09/23 01:19:22;;;;;;;8.77;8.07;;;;;;;;;;4974446;28;20053;-68
2022/09/23 01:21:48;;;;;;;8.32;7.53;;;;;;;;;;4974433;28;20054;-68
2022/09/23 01:24:36;;;;;;;8.57;7.75;;;;;;;;;;4974524;28;20061;-68
2022/09/23 01:27:32;;;;;;;9.00;8.30;;;;;;;;;;4974492;28;20414;-68
2022/09/23 01:30:17;;;;;;;9.00;8.27;;;;;;;;;;4965972;28;20406;-68
2022/09/23 01:32:44;;;;;;;8.23;7.53;;;;;;;;;;4974076;28;20050;-68
2022/09/23 01:35:30;;;;;;;9.70;8.80;;;;;;;;;;4974448;28;20054;-68
2022/09/23 01:38:23;;;;;;;10.27;7.77;;;;;;;;;;4974206;28;20414;-68
2022/09/23 01:40:58;;;;;;;8.27;7.50;;;;;;;;;;4947592;28;20055;-68
2022/09/23 01:43:43;;;;;;;8.27;7.68;;;;;;;;;;4973952;28;20057;-68
2022/09/23 01:46:13;;;;;;;9.13;8.13;;;;;;;;;;4974047;28;20062;-68
2022/09/23 01:48:50;;;;;;;8.68;7.88;;;;;;;;;;4974182;28;20050;-68
2022/09/23 01:51:24;;;;;;;8.40;7.70;;;;;;;;;;4974035;28;20055;-68
2022/09/23 01:53:56;;;;;;;9.20;8.50;;;;;;;;;;4973776;28;20053;-68
2022/09/23 01:56:26;;;;;;;9.23;8.45;;;;;;;;;;4973990;28;20069;-68
2022/09/23 01:58:52;;;;;;;9.27;8.38;;;;;;;;;;4973535;28;20505;-68
2022/09/23 02:01:22;;;;;;;8.68;7.88;;;;;;;;;;4973636;28;20487;-68
2022/09/23 02:04:08;;;;;;;9.13;8.43;;;;;;;;;;4973530;28;20050;-68
2022/09/23 02:06:37;;;;;;;8.48;7.78;;;;;;;;;;4973525;28;20057;-68
2022/09/23 02:09:08;;;;;;;8.68;7.97;;;;;;;;;;4973346;28;20076;-68
2022/09/23 02:11:35;;;;;;;8.52;7.72;;;;;;;;;;4973576;28;20050;-68
2022/09/23 02:14:05;;;;;;;8.50;7.85;;;;;;;;;;4973374;28;20046;-68
2022/09/23 02:16:32;;;;;;;8.43;7.70;;;;;;;;;;4973476;28;20419;-68
2022/09/23 02:19:06;;;;;;;8.18;7.55;;;;;;;;;;4973545;28;20049;-68
2022/09/23 02:21:35;;;;;;;8.32;7.63;;;;;;;;;;4973379;28;20553;-68
2022/09/23 02:24:04;;;;;;;9.32;8.52;;;;;;;;;;4973334;28;20059;-68
2022/09/23 02:26:36;;;;;;;9.15;8.25;;;;;;;;;;4973066;28;20046;-68
2022/09/23 02:29:15;;;;;;;9.40;8.68;;;;;;;;;;4973211;28;20057;-68
2022/09/23 02:31:56;;;;;;;8.00;7.40;;;;;;;;;;4973407;28;20066;-68
2022/09/23 02:34:28;;;;;;;8.65;7.88;;;;;;;;;;4973301;28;20438;-68
2022/09/23 02:37:06;;;;;;;8.80;8.07;;;;;;;;;;4971447;28;20047;-69
2022/09/23 02:39:38;;;;;;;9.07;7.45;;;;;;;;;;4972944;28;20043;-68
2022/09/23 02:42:06;;;;;;;7.93;7.32;;;;;;;;;;4973050;28;20055;-69
2022/09/23 02:44:32;;;;;;;8.73;7.85;;;;;;;;;;4973106;28;20054;-69
2022/09/23 02:46:59;;;;;;;8.27;7.57;;;;;;;;;;4973033;28;20069;-69
2022/09/23 02:49:26;;;;;;;7.90;7.28;;;;;;;;;;4973023;28;20059;-68
2022/09/23 02:51:53;;;;;;;8.45;7.50;;;;;;;;;;4972712;28;20049;-69
2022/09/23 02:54:21;;;;;;;8.00;7.22;;;;;;;;;;4972934;28;20434;-69
2022/09/23 02:56:48;;;;;;;8.75;7.90;;;;;;;;;;4972874;28;20051;-69
2022/09/23 02:59:18;;;;;;;8.77;8.00;;;;;;;;;;4972735;28;20051;-69
2022/09/23 03:01:47;;;;;;;8.05;7.35;;;;;;;;;;4972947;28;20050;-69
2022/09/23 03:04:19;;;;;;;8.70;8.00;;;;;;;;;;4972864;28;20051;-68
2022/09/23 03:06:49;;;;;;;7.85;7.22;;;;;;;;;;4972766;28;20059;-69
2022/09/23 03:09:21;;;;;;;8.30;7.50;;;;;;;;;;4972557;28;20065;-68
2022/09/23 03:11:51;;;;;;;7.85;7.20;;;;;;;;;;4972865;28;20076;-69
2022/09/23 03:14:28;;;;;;;8.18;7.38;;;;;;;;;;4972745;28;20046;-69
2022/09/23 03:16:58;;;;;;;7.70;7.00;;;;;;;;;;4972767;28;20051;-69
2022/09/23 03:19:24;;;;;;;7.18;6.57;;;;;;;;;;4972943;28;20066;-69
2022/09/23 03:21:56;;;;;;;7.53;6.90;;;;;;;;;;4972850;28;20065;-69
2022/09/23 03:24:23;;;;;;;8.38;7.68;;;;;;;;;;4972561;28;20062;-68
2022/09/23 03:26:51;;;;;;;7.50;6.90;;;;;;;;;;4972595;28;20062;-68
2022/09/23 03:29:19;;;;;;;8.30;7.60;;;;;;;;;;4972650;28;20388;-68
2022/09/23 03:31:45;;;;;;;;;;;;;;;;;;4972812;28;20517;-68
2022/09/23 03:34:23;;;;;;;7.70;7.10;;;;;;;;;;4972618;28;20401;-68
2022/09/23 03:37:10;;;;;;;7.35;6.70;;;;;;;;;;4972808;28;20056;-68
2022/09/23 03:39:41;;;;;;;7.78;7.18;;;;;;;;;;4974437;28;20133;-68
2022/09/23 03:42:15;;;;;;;7.75;7.05;;;;;;;;;;4976220;28;20054;-68
2022/09/23 03:44:46;;;;;;;8.70;7.82;;;;;;;;;;4976323;28;20051;-68
2022/09/23 03:47:13;;;;;;;7.65;6.95;;;;;;;;;;4976463;28;20046;-68
2022/09/23 03:49:43;;;;;;;7.50;6.90;;;;;;;;;;4976242;28;20089;-67
2022/09/23 03:52:09;;;;;;;8.10;7.43;;;;;;;;;;4975967;28;20050;-67
2022/09/23 03:54:36;;;;;;;8.33;7.63;;;;;;;;;;4975976;28;20058;-67
2022/09/23 03:57:02;;;;;;;8.82;7.95;;;;;;;;;;4976174;28;20292;-68
2022/09/23 03:59:29;;;;;;;7.97;7.30;;;;;;;;;;4975814;28;20495;-68
2022/09/23 04:01:58;;;;;;;9.50;8.63;;;;;;;;;;4976024;28;20067;-67
2022/09/23 04:04:26;;;;;;;8.48;7.75;;;;;;;;;;4976002;28;20050;-68
2022/09/23 04:06:53;;;;;;;8.00;7.13;;;;;;;;;;4976966;28;20059;-68
2022/09/23 04:09:19;;;;;;;9.02;8.20;;;;;;;;;;4975535;28;20069;-68
2022/09/23 04:11:49;;;;;;;7.80;7.20;;;;;;;;;;4975647;28;20414;-68
2022/09/23 04:14:16;;;;;;;9.43;8.45;;;;;;;;;;4975675;28;20061;-68
2022/09/23 04:16:43;;;;;;;10.25;9.35;;;;;;;;;;4975924;28;20054;-68
2022/09/23 04:19:09;;;;;;;8.85;8.13;;;;;;;;;;4975816;28;20047;-68
2022/09/23 04:21:37;;;;;;;;;;;;;;;;;;4975922;28;20058;-69
2022/09/23 04:24:03;;;;;;;10.45;9.27;;;;;;;;;;4975471;28;19929;-68
2022/09/23 04:26:30;;;;;;;10.05;9.15;;;;;;;;;;4975536;28;20046;-68
2022/09/23 04:28:57;;;;;;;10.27;9.38;;;;;;;;;;4975320;28;20050;-68
2022/09/23 04:31:23;;;;;;;9.82;8.93;;;;;;;;;;4975317;28;20043;-68
2022/09/23 04:33:52;;;;;;;10.57;9.55;;;;;;;;;;4975287;28;20055;-68
2022/09/23 04:36:18;;;;;;;10.80;9.80;;;;;;;;;;4975106;28;20487;-68
2022/09/23 04:38:45;;;;;;;10.15;9.32;;;;;;;;;;4975163;28;20051;-68
2022/09/23 04:41:12;;;;;;;10.50;9.60;;;;;;;;;;4975121;28;20138;-68
2022/09/23 04:43:39;;;;;;;10.83;9.67;;;;;;;;;;4975166;28;20055;-68
2022/09/23 04:46:06;;;;;;;10.40;9.40;;;;;;;;;;4964180;28;20074;-68
2022/09/23 04:48:32;;;;;;;11.18;10.18;;;;;;;;;;4972723;28;20061;-68
2022/09/23 04:51:06;;;;;;;10.38;9.48;;;;;;;;;;4974689;28;20043;-68
2022/09/23 04:53:37;;;;;;;10.45;9.57;;;;;;;;;;4974903;28;20051;-68
2022/09/23 04:56:04;;;;;;;10.45;9.52;;;;;;;;;;4975169;28;20057;-68
2022/09/23 04:58:31;;;;;;;;;;;;;;;;;;4975305;28;20046;-67
2022/09/23 05:01:06;;;;;;;10.52;9.55;;;;;;;;;;4974755;28;19926;-68
2022/09/23 05:03:34;;;;;;;10.30;9.40;;;;;;;;;;4974998;28;20185;-68
2022/09/23 05:06:00;;;;;;;;;;;;;;;;;;4975401;28;20422;-68
2022/09/23 05:08:27;;;;;;;9.32;8.52;;;;;;;;;;4974843;28;20016;-68
2022/09/23 05:10:57;;;;;;;9.75;8.85;;;;;;;;;;4974603;28;20047;-68
2022/09/23 05:13:24;;;;;;;9.10;8.30;;;;;;;;;;4974630;28;20047;-68
2022/09/23 05:15:57;;;;;;;9.13;8.15;;;;;;;;;;4974425;28;20050;-68
2022/09/23 05:18:24;;;;;;;9.40;8.52;;;;;;;;;;4974690;28;20053;-68
2022/09/23 05:20:54;;;;;;;9.27;8.18;;;;;;;;;;4974626;28;20070;-68
2022/09/23 05:23:24;;;;;;;12.02;9.48;;;;;;;;;;4974695;28;20050;-68
2022/09/23 05:25:57;;;;;;;9.75;8.75;;;;;;;;;;4974341;28;20046;-68
2022/09/23 05:28:30;;;;;;;10.93;9.10;;;;;;;;;;4974232;28;20057;-68
2022/09/23 05:31:04;;;;;;;9.85;8.85;;;;;;;;;;4974039;28;20049;-68
2022/09/23 05:33:31;;;;;;;8.82;7.90;;;;;;;;;;4974296;28;20050;-68
2022/09/23 05:35:57;;;;;;;8.70;7.80;;;;;;;;;;4974056;28;20046;-68
2022/09/23 05:38:24;;;;;;;9.48;8.15;;;;;;;;;;4974119;28;20043;-67
2022/09/23 05:40:57;;;;;;;9.48;8.27;;;;;;;;;;4974249;28;20396;-67
2022/09/23 05:43:24;;;;;;;8.32;7.60;;;;;;;;;;4973977;28;20058;-67
2022/09/23 05:45:51;;;;;;;7.83;7.07;;;;;;;;;;4973059;28;20074;-68
2022/09/23 05:48:17;;;;;;;8.53;7.70;;;;;;;;;;4973836;28;20764;-67
2022/09/23 05:50:50;;;;;;;7.82;7.13;;;;;;;;;;4973820;28;20059;-67
2022/09/23 05:53:17;;;;;;;12.48;8.18;;;;;;;;;;4973772;28;20043;-67
2022/09/23 05:55:44;;;;;;;10.77;9.05;;;;;;;;;;4973998;28;20054;-68
2022/09/23 05:58:11;;;;;;;10.55;9.45;;;;;;;;;;4974103;28;20057;-68
2022/09/23 06:00:38;;;;;;;11.77;10.57;;;;;;;;;;4973568;28;20069;-67
2022/09/23 06:03:05;;;;;;;;;;;;;;;;;;4973628;28;20289;-67
2022/09/23 06:05:31;;;;;;;12.18;10.77;;;;;;;;;;4973608;28;19959;-68
2022/09/23 06:07:58;;;;;;;14.90;12.90;;;;;;;;;;4973366;28;20063;-67
2022/09/23 06:10:25;;;;;;;14.27;12.77;;;;;;;;;;4973571;28;20411;-66
2022/09/23 06:12:52;;;;;;;;;;;;;;;;;;4973909;28;20055;-67
2022/09/23 06:15:18;;;;;;;17.67;14.88;;;;;;;;;;4970278;28;19932;-67
2022/09/23 06:17:47;;;;;;;19.67;16.85;;;;;;;;;;4973036;28;20043;-68
2022/09/23 06:20:14;;;;;;;21.67;17.95;;;;;;;;;;4972986;28;20050;-67
2022/09/23 06:22:40;;;;;;;23.00;17.85;;;;;;;;;;4973353;28;20054;-67
2022/09/23 06:25:06;;;;;;;26.40;17.30;;;;;;;;;;4973225;28;20062;-67
2022/09/23 06:27:33;;;;;;;21.90;17.50;;;;;;;;;;4973161;28;20058;-67
2022/09/23 06:29:59;;;;;;;22.25;17.30;;;;;;;;;;4973189;28;20487;-66
2022/09/23 06:32:26;;;;;;;20.90;16.40;;;;;;;;;;4973326;28;20055;-68
2022/09/23 06:34:52;;;;;;;19.38;15.95;;;;;;;;;;4972938;28;20051;-68
2022/09/23 06:37:18;;;;;;;21.10;16.33;;;;;;;;;;4973093;28;20054;-68
2022/09/23 06:39:46;;;;;;;20.00;16.05;;;;;;;;;;4967907;28;20133;-67
2022/09/23 06:42:12;;;;;;;19.15;15.55;;;;;;;;;;4961806;28;20054;-67
2022/09/23 06:44:38;;;;;;;21.27;16.42;;;;;;;;;;4966602;28;20082;-67
2022/09/23 06:47:05;;;;;;;19.40;15.52;;;;;;;;;;4972913;28;20058;-67
2022/09/23 06:49:32;;;;;;;17.65;14.63;;;;;;;;;;4973081;28;20059;-67
2022/09/23 06:51:59;;;;;;;19.27;15.10;;;;;;;;;;4971092;28;20053;-67
2022/09/23 06:54:29;;;;;;;19.40;15.10;;;;;;;;;;4971680;28;20049;-67
2022/09/23 06:56:55;;;;;;;17.38;14.48;;;;;;;;;;4972512;28;20058;-67
2022/09/23 06:59:23;;;;;;;17.60;14.15;;;;;;;;;;4972545;28;20049;-67
2022/09/23 07:01:50;;;;;;;18.08;14.70;;;;;;;;;;4972076;28;20043;-68
2022/09/23 07:04:16;;;;;;;17.58;13.82;;;;;;;;;;4972283;28;20102;-67
2022/09/23 07:06:43;;;;;;;17.55;13.82;;;;;;;;;;4973036;28;20051;-67
2022/09/23 07:09:09;;;;;;;16.80;13.00;;;;;;;;;;4972669;28;20430;-67
2022/09/23 07:11:36;;;;;;;15.73;13.20;;;;;;;;;;4972596;28;20521;-67
2022/09/23 07:14:03;;;;;;;17.47;13.50;;;;;;;;;;4974031;28;20521;-67
2022/09/23 07:16:30;;;;;;;18.75;13.30;;;;;;;;;;4976901;28;20057;-67
2022/09/23 07:18:56;;;;;;;;;;;;;;;;;;4976984;28;20051;-67
2022/09/23 07:21:23;;;;;;;15.18;12.90;;;;;;;;;;4976808;28;19933;-67
2022/09/23 07:23:50;;;;;;;16.35;13.40;;;;;;;;;;4976238;28;20054;-67
2022/09/23 07:26:17;;;;;;;15.85;12.63;;;;;;;;;;4976487;28;20058;-67
2022/09/23 07:28:44;;;;;;;16.63;12.93;;;;;;;;;;4975925;28;20047;-67
2022/09/23 07:31:12;;;;;;;14.32;11.82;;;;;;;;;;4976271;28;20426;-67
2022/09/23 07:33:42;;;;;;;15.93;12.77;;;;;;;;;;4976359;28;20055;-67
2022/09/23 07:36:11;;;;;;;13.93;12.35;;;;;;;;;;4976295;28;20490;-67
2022/09/23 07:38:37;;;;;;;15.35;12.10;;;;;;;;;;4975972;28;20061;-67
2022/09/23 07:41:12;;;;;;;14.63;12.65;;;;;;;;;;4976413;28;20388;-67
2022/09/23 07:43:39;;;;;;;15.05;12.15;;;;;;;;;;4975255;28;20070;-67
2022/09/23 07:46:07;;;;;;;;;;;;;;;;;;4976580;28;20078;-67
2022/09/23 07:48:34;;;;;;;12.32;11.05;;;;;;;;;;4976334;28;19925;-67
2022/09/23 07:51:09;;;;;;;14.98;12.45;;;;;;;;;;4976382;28;20047;-67
2022/09/23 07:53:36;;;;;;;14.50;12.15;;;;;;;;;;4976100;28;20043;-67
2022/09/23 07:56:05;;;;;;;13.73;11.30;;;;;;;;;;4976039;28;20055;-68
2022/09/23 07:58:32;;;;;;;13.65;11.40;;;;;;;;;;4973676;28;20058;-68
2022/09/23 08:01:05;;;;;;;13.82;12.00;;;;;;;;;;4975371;28;20054;-68
2022/09/23 08:03:32;;;;;;;14.98;11.35;;;;;;;;;;4975669;28;20105;-67
2022/09/23 08:06:03;;;;;;;13.85;10.70;;;;;;;;;;4975307;28;20061;-66
2022/09/23 08:08:29;;;;;;;12.60;11.30;;;;;;;;;;4974288;28;20061;-68
2022/09/23 08:11:01;;;;;;;13.43;11.40;;;;;;;;;;4973907;28;20058;-68
2022/09/23 08:13:27;;;;;;;11.65;10.45;;;;;;;;;;4973598;28;20505;-67
2022/09/23 08:15:54;;;;;;;11.82;10.73;;;;;;;;;;4973732;28;20413;-68
2022/09/23 08:18:21;;;;;;;12.05;10.82;;;;;;;;;;4973805;28;20097;-69
2022/09/23 08:20:47;;;;;;;13.00;10.82;;;;;;;;;;4973419;28;20057;-68
2022/09/23 08:23:14;;;;;;;10.95;9.90;;;;;;;;;;4973526;28;20149;-68
2022/09/23 08:25:41;;;;;;;11.80;10.00;;;;;;;;;;4970661;28;20057;-68
2022/09/23 08:28:14;;;;;;;12.10;10.23;;;;;;;;;;4974121;28;20495;-69
2022/09/23 08:30:46;;;;;;;12.00;9.48;;;;;;;;;;4973930;28;20494;-68
2022/09/23 08:33:13;;;;;;;11.07;9.20;;;;;;;;;;4974104;28;20046;-68
2022/09/23 08:35:39;;;;;;;9.97;7.97;;;;;;;;;;4973935;28;20043;-68
2022/09/23 08:38:06;;;;;;;9.32;8.23;;;;;;;;;;4974008;28;20043;-69
2022/09/23 08:40:36;;;;;;;13.32;9.02;;;;;;;;;;4973889;28;20077;-69
2022/09/23 08:43:05;;;;;;;10.55;8.23;;;;;;;;;;4973684;28;20183;-69
2022/09/23 08:45:33;;;;;;;9.48;8.40;;;;;;;;;;4973441;28;20050;-69
2022/09/23 08:48:00;;;;;;;10.95;8.05;;;;;;;;;;4973164;28;20042;-69
2022/09/23 08:50:27;;;;;;;;;;;;;;;;;;4973638;28;20061;-69
2022/09/23 08:52:54;;;;;;;12.67;8.67;;;;;;;;;;4973055;28;19926;-68
2022/09/23 08:55:23;;;;;;;10.50;8.45;;;;;;;;;;4973830;28;20047;-68
2022/09/23 08:57:49;;;;;;;9.77;7.82;;;;;;;;;;4972996;28;20049;-68
2022/09/23 09:00:39;;;;;;;9.52;7.60;;;;;;;;;;4971125;28;20050;-68
2022/09/23 09:03:17;;;;;;;11.70;8.10;;;;;;;;;;4973136;28;20050;-68
2022/09/23 09:05:43;;;;;;;9.13;7.50;;;;;;;;;;4973104;28;20514;-68
2022/09/23 09:08:28;;;;;;;10.00;6.43;;;;;;;;;;4935485;28;1107215;-68
2022/09/23 09:10:57;;;;;;;9.93;7.45;;;;;;;;;;4974240;28;20054;-68
2022/09/23 09:13:31;;;;;;;10.93;6.38;;;;;;;;;;4973614;28;20053;-68
2022/09/23 09:16:10;;;;;;;8.23;7.28;;;;;;;;;;4973989;28;20544;-68
2022/09/23 09:18:43;;;;;;;8.20;7.15;;;;;;;;;;4973925;28;20499;-68
2022/09/23 09:21:13;;;;;;;8.45;6.55;;;;;;;;;;4974258;28;20063;-68
2022/09/23 09:23:47;;;;;;;8.77;6.97;;;;;;;;;;4973918;28;20054;-68
2022/09/23 09:26:21;;;;;;;7.68;6.75;;;;;;;;;;4974081;28;20521;-68
2022/09/23 09:28:50;;;;;;;7.45;6.70;;;;;;;;;;4973786;28;20051;-68
2022/09/23 09:31:21;;;;;;;8.40;6.88;;;;;;;;;;4973540;28;20058;-68
2022/09/23 09:33:59;;;;;;;8.23;5.50;;;;;;;;;;4973543;28;20047;-68
2022/09/23 09:36:31;;;;;;;6.00;5.38;;;;;;;;;;4973317;28;20046;-68
2022/09/23 09:38:58;;;;;;;6.07;5.45;;;;;;;;;;4974071;28;20055;-68
2022/09/23 09:41:26;;;;;;;6.05;5.55;;;;;;;;;;4974247;28;20102;-68
2022/09/23 09:43:56;;;;;;;8.82;6.60;;;;;;;;;;4974362;28;20047;-68
2022/09/23 09:46:28;;;;;;;7.45;6.75;;;;;;;;;;4974037;28;20502;-68
2022/09/23 09:49:00;;;;;;;6.75;6.25;;;;;;;;;;4973430;28;20076;-67
2022/09/23 09:51:28;;;;;;;6.55;5.97;;;;;;;;;;4973845;28;20055;-67
2022/09/23 09:54:13;;;;;;;5.82;5.43;;;;;;;;;;4973031;28;20487;-68
2022/09/23 09:56:40;;;;;;;6.20;5.60;;;;;;;;;;4973602;28;20043;-68
2022/09/23 09:59:10;;;;;;;5.25;4.75;;;;;;;;;;4971548;28;20058;-68
2022/09/23 10:01:36;;;;;;;6.15;5.07;;;;;;;;;;4973623;28;20053;-68
2022/09/23 10:04:04;;;;;;;5.05;4.75;;;;;;;;;;4973705;28;20051;-68
2022/09/23 10:06:34;;;;;;;5.28;4.93;;;;;;;;;;4973259;28;20050;-68
2022/09/23 10:09:03;;;;;;;6.07;5.50;;;;;;;;;;4973259;28;20059;-69
2022/09/23 10:11:31;;;;;;;5.32;5.07;;;;;;;;;;4973075;28;20055;-68
2022/09/23 10:13:57;;;;;;;;;;;;;;;;;;4973418;28;20534;-68
2022/09/23 10:16:23;;;;;;;6.50;6.00;;;;;;;;;;4973015;28;20358;-68
2022/09/23 10:18:50;;;;;;;5.60;5.10;;;;;;;;;;4972476;28;20062;-68
2022/09/23 10:21:19;;;;;;;5.45;4.93;;;;;;;;;;4972894;28;20054;-69
2022/09/23 10:23:54;;;;;;;4.80;4.43;;;;;;;;;;4972812;28;20058;-69
2022/09/23 10:26:33;;;;;;;4.97;4.57;;;;;;;;;;4972408;28;20054;-68
2022/09/23 10:29:17;;;;;;;4.53;4.13;;;;;;;;;;4972734;28;20042;-68
2022/09/23 10:31:44;;;;;;;3.72;3.42;;;;;;;;;;4973190;28;20050;-68
2022/09/23 10:34:19;;;;;;;3.75;3.30;;;;;;;;;;4972659;28;20058;-67
2022/09/23 10:36:53;;;;;;;2.97;2.83;;;;;;;;;;4972692;28;20043;-68
2022/09/23 10:48:27;;;;;;;5.10;3.90;;;;;;;;;;4966934;28;20054;-68
2022/09/23 10:50:54;;;;;;;3.58;3.38;;;;;;;;;;4972957;28;20049;-68
2022/09/23 10:53:23;;;;;;;2.80;2.55;;;;;;;;;;4972486;28;20050;-69
2022/09/23 10:56:03;;;;;;;2.95;2.60;;;;;;;;;;4972155;28;20062;-68
2022/09/23 10:58:32;;;;;;;3.10;2.88;;;;;;;;;;4971511;28;20053;-68
2022/09/23 11:01:04;;;;;;;3.70;3.05;;;;;;;;;;4971997;28;20055;-68
2022/09/23 11:03:44;;;;;;;3.08;2.88;;;;;;;;;;4972442;28;20134;-68
2022/09/23 11:06:21;;;;;;;3.60;3.22;;;;;;;;;;4972445;28;20055;-68
2022/09/23 11:08:50;;;;;;;;;;;;;;;;;;4972738;28;20407;-68
2022/09/23 11:11:17;;;;;;;3.05;2.85;;;;;;;;;;4972581;28;19929;-69
2022/09/23 11:13:43;;;;;;;2.90;2.70;;;;;;;;;;4972136;28;20047;-69
2022/09/23 11:16:15;;;;;;;2.33;2.13;;;;;;;;;;4972166;28;20051;-69
2022/09/23 11:18:42;;;;;;;3.03;1.83;;;;;;;;;;4970919;28;20078;-70
2022/09/23 11:21:27;;;;;;;1.67;1.50;;;;;;;;;;4961545;28;20051;-68
2022/09/23 11:24:15;;;;;;;1.58;1.45;;;;;;;;;;4971681;28;20062;-67
2022/09/23 11:26:44;;;;;;;1.67;1.10;;;;;;;;;;4966626;28;20426;-66
2022/09/23 11:29:20;;;;;;;1.85;1.25;;;;;;;;;;4972349;28;20054;-67
2022/09/23 11:31:46;;;;;;;;;;;;;;;;;;4972780;28;20061;-66
2022/09/23 11:34:27;;;;;;;2.60;1.42;;;;;;;;;;4972012;28;20465;-66
2022/09/23 11:37:03;;;;;;;2.88;1.80;;;;;;;;;;4972536;28;20054;-66
2022/09/23 11:39:42;;;;;;;4.18;1.73;;;;;;;;;;4972246;28;20047;-66
2022/09/23 11:42:14;;;;;;;2.20;1.88;;;;;;;;;;4972325;28;20061;-66
2022/09/23 11:44:43;;;;;;;3.08;1.58;;;;;;;;;;4971986;28;20498;-66
2022/09/23 11:47:13;;;;;;;2.35;1.38;;;;;;;;;;4972115;28;20051;-67
2022/09/23 11:49:41;;;;;;;4.57;1.85;;;;;;;;;;4971941;28;20061;-66
2022/09/23 11:52:13;;;;;;;3.42;1.60;;;;;;;;;;4971933;28;20051;-67
2022/09/23 11:54:44;;;;;;;2.20;1.10;;;;;;;;;;4968028;28;20088;-66
2022/09/23 11:57:18;;;;;;;3.75;1.00;;;;;;;;;;4955713;28;20053;-67
2022/09/23 11:59:48;;;;;;;2.95;1.23;;;;;;;;;;4970416;28;20057;-66
2022/09/23 12:02:22;;;;;;;3.55;1.38;;;;;;;;;;4975497;28;20042;-66
2022/09/23 12:05:05;;;;;;;3.58;1.40;;;;;;;;;;4975815;28;20046;-66
2022/09/23 12:07:32;;;;;;;;;;;;;;;;;;4976126;28;20046;-66
2022/09/23 12:10:08;;;;;;;2.47;0.90;;;;;;;;;;4975113;28;20368;-66
2022/09/23 12:12:53;;;;;;;2.40;1.02;;;;;;;;;;4962602;28;20043;-67
2022/09/23 12:15:33;;;;;;;2.25;1.17;;;;;;;;;;4975253;28;20082;-66
2022/09/23 12:18:11;;;;;;;1.23;1.00;;;;;;;;;;4975181;28;20047;-66
2022/09/23 12:20:58;;;;;;;2.28;1.00;;;;;;;;;;4975222;28;20059;-66
2022/09/23 12:23:45;;;;;;;3.25;0.93;;;;;;;;;;4975337;28;20052;-66
2022/09/23 12:26:16;;;;;;;2.40;0.70;;;;;;;;;;4975305;28;20050;-66
2022/09/23 12:28:44;;;;;;;0.85;0.47;;;;;;;;;;4974405;28;20050;-67
2022/09/23 12:31:13;;;;;;;3.00;0.80;;;;;;;;;;4962081;28;20046;-67
2022/09/23 12:33:46;;;;;;;2.90;0.70;;;;;;;;;;4974792;28;20051;-66
2022/09/23 12:36:13;;;;;;;1.75;0.70;;;;;;;;;;4975194;28;20402;-66
2022/09/23 12:38:39;;;;;;;;;;;;;;;;;;4975306;28;20047;-67
2022/09/23 12:41:21;;;;;;;1.77;0.50;;;;;;;;;;4974458;28;19929;-66
2022/09/23 12:44:14;;;;;;;1.38;0.40;;;;;;;;;;4974838;28;20074;-66
2022/09/23 12:46:41;;;;;;;1.73;0.57;;;;;;;;;;4970066;28;20054;-66
2022/09/23 12:49:23;;;;;;;2.67;0.50;;;;;;;;;;4974784;28;20062;-66
2022/09/23 12:52:08;;;;;;;1.92;0.60;;;;;;;;;;4974273;28;20498;-67
2022/09/23 12:54:35;;;;;;;1.35;0.68;;;;;;;;;;4955369;28;20411;-67
2022/09/23 12:57:02;;;;;;;2.45;0.50;;;;;;;;;;4958132;28;20505;-67
2022/09/23 12:59:54;;;;;;;2.40;0.57;;;;;;;;;;4971242;28;20499;-67
2022/09/23 13:02:20;;;;;;;1.55;0.65;;;;;;;;;;4973960;28;20443;-67
2022/09/23 13:07:47;;;;;;;2.30;1.00;;;;;;;;;;4974555;28;20054;-66
2022/09/23 13:10:17;;;;;;;3.63;1.27;;;;;;;;;;4974275;28;20047;-66
2022/09/23 13:12:44;;;;;;;0.85;0.68;;;;;;;;;;4972869;28;20055;-67
2022/09/23 13:15:31;;;;;;;5.50;1.00;;;;;;;;;;4973303;28;20053;-67
2022/09/23 13:18:17;;;;;;;3.47;0.70;;;;;;;;;;4973569;28;20415;-67
2022/09/23 13:20:45;;;;;;;1.93;0.77;;;;;;;;;;4973718;28;20053;-66
2022/09/23 13:23:14;;;;;;;1.92;0.85;;;;;;;;;;4973538;28;20058;-66
2022/09/23 13:25:42;;;;;;;2.70;0.82;;;;;;;;;;4973984;28;20059;-66
2022/09/23 13:28:23;;;;;;;1.48;0.60;;;;;;;;;;4974062;28;20051;-66
2022/09/23 13:30:51;;;;;;;2.65;0.70;;;;;;;;;;4974593;28;20057;-67
2022/09/23 13:33:22;;;;;;;2.03;0.70;;;;;;;;;;4973977;28;20094;-66
2022/09/23 13:35:50;;;;;;;2.00;0.47;;;;;;;;;;4973692;28;20050;-66
2022/09/23 13:38:24;;;;;;;1.80;0.60;;;;;;;;;;4973603;28;20050;-66
2022/09/23 13:40:57;;;;;;;0.82;0.47;;;;;;;;;;4973598;28;20066;-66
2022/09/23 13:43:26;;;;;;;1.42;0.52;;;;;;;;;;4973493;28;20477;-66
2022/09/23 13:45:54;;;;;;;2.50;0.68;;;;;;;;;;4973640;28;20153;-66
2022/09/23 13:48:22;;;;;;;1.40;0.50;;;;;;;;;;4973351;28;20050;-66
2022/09/23 13:50:49;;;;;;;3.45;0.60;;;;;;;;;;4973766;28;20057;-66
2022/09/23 13:53:20;;;;;;;1.45;0.50;;;;;;;;;;4972959;28;20055;-66
2022/09/23 13:55:46;;;;;;;1.95;0.70;;;;;;;;;;4973569;28;20051;-66
2022/09/23 13:58:19;;;;;;;1.55;0.45;;;;;;;;;;4973270;28;20056;-66
2022/09/23 14:00:46;;;;;;;2.60;0.68;;;;;;;;;;4971273;28;20069;-66
2022/09/23 14:03:21;;;;;;;1.55;0.50;;;;;;;;;;4973061;28;20505;-66
2022/09/23 14:05:48;;;;;;;1.80;0.60;;;;;;;;;;4972931;28;20055;-67
2022/09/23 14:08:14;;;;;;;1.55;0.70;;;;;;;;;;4972688;28;20059;-67
2022/09/23 14:10:44;;;;;;;;;;;;;;;;;;4972933;28;20062;-67
2022/09/23 14:13:31;;;;;;;1.88;0.70;;;;;;;;;;4972798;28;19928;-67
2022/09/23 14:15:58;;;;;;;1.55;0.90;;;;;;;;;;4960755;28;20057;-67
2022/09/23 14:18:28;;;;;;;2.35;0.75;;;;;;;;;;4973713;28;20510;-67
2022/09/23 14:20:54;;;;;;;2.17;0.70;;;;;;;;;;4972548;28;20051;-67
2022/09/23 14:23:21;;;;;;;1.52;0.95;;;;;;;;;;4971790;28;20046;-67
2022/09/23 14:25:49;;;;;;;1.33;0.90;;;;;;;;;;4972609;28;20058;-66
2022/09/23 14:28:17;;;;;;;1.48;1.00;;;;;;;;;;4972586;28;20057;-67
2022/09/23 14:30:45;;;;;;;2.70;1.40;;;;;;;;;;4970513;28;20054;-67
2022/09/23 14:33:15;;;;;;;1.67;0.85;;;;;;;;;;4971635;28;20051;-68
2022/09/23 14:35:46;;;;;;;2.03;0.95;;;;;;;;;;4972062;28;20042;-68
2022/09/23 14:38:53;;;;;;;0.93;0.60;;;;;;;;;;4971786;28;20061;-67
2022/09/23 14:41:15;;;;;;;2.13;0.80;;;;;;;;;;4971043;28;20047;-67
2022/09/23 14:43:46;;;;;;;1.02;0.65;;;;;;;;;;4972036;28;20414;-68
2022/09/23 14:46:16;;;;;;;2.25;0.77;;;;;;;;;;4973252;28;20054;-67
2022/09/23 14:48:42;;;;;;;2.35;0.85;;;;;;;;;;4972975;28;20498;-68
2022/09/23 14:51:09;;;;;;;1.80;1.02;;;;;;;;;;4973370;28;20055;-68
2022/09/23 14:53:44;;;;;;;1.70;1.05;;;;;;;;;;4972909;28;20486;-68
2022/09/23 14:56:18;;;;;;;1.20;1.10;;;;;;;;;;4972895;28;20066;-67
2022/09/23 14:58:53;;;;;;;1.70;1.00;;;;;;;;;;4973142;28;20046;-68
2022/09/23 15:01:38;;;;;;;1.52;1.10;;;;;;;;;;4973165;28;20076;-67
2022/09/23 15:04:29;;;;;;;3.33;1.35;;;;;;;;;;4973231;28;20050;-67
2022/09/23 15:06:58;;;;;;;1.77;0.82;;;;;;;;;;4973311;28;20051;-68
2022/09/23 15:09:25;;;;;;;1.20;1.10;;;;;;;;;;4972782;28;20058;-68
2022/09/23 15:11:55;;;;;;;1.55;0.80;;;;;;;;;;4972812;28;20066;-68
2022/09/23 15:14:21;;;;;;;1.17;0.60;;;;;;;;;;4972725;28;20047;-68
2022/09/23 15:17:05;;;;;;;1.00;0.43;;;;;;;;;;4973069;28;20053;-68